This is the latest recevied weather packets stored in our database for station/object 9W4GWK-G. If no packets are shown the sender has not sent any weather packets the latest 10 day(s).
| Time | Temp. | Humidity | Pressure | Rain* | Wind** | Luminosity | Snow |
|---|---|---|---|---|---|---|---|
| 1777204144 | 31.11° C | 58% | 1008.3 hPa | - | - | - | - |
| 1777203242 | 30.56° C | 59% | 1007.8 hPa | - | - | - | - |
| 1777202340 | 29.44° C | 47% | 1007.3 hPa | - | - | - | - |
| 1777201438 | 29.44° C | 43% | 1007 hPa | - | - | - | - |
| 1777200536 | 29.44° C | 43% | 1007 hPa | - | - | - | - |
| 1777199633 | 29.44° C | 41% | 1006.8 hPa | - | - | - | - |
| 1777198731 | 29.44° C | 41% | 1006.7 hPa | - | - | - | - |
| 1777197830 | 29.44° C | 43% | 1006.7 hPa | - | - | - | - |
| 1777196928 | 29.44° C | 40% | 1006.7 hPa | - | - | - | - |
| 1777196026 | 29.44° C | 42% | 1006.6 hPa | - | - | - | - |
| 1777195124 | 29.44° C | 43% | 1006.7 hPa | - | - | - | - |
| 1777194222 | 30° C | 44% | 1006.7 hPa | - | - | - | - |
| 1777193320 | 30° C | 46% | 1006.9 hPa | - | - | - | - |
| 1777192418 | 31.67° C | 47% | 1006.7 hPa | - | - | - | - |
| 1777191516 | 33.89° C | 55% | 1006.9 hPa | - | - | - | - |
| 1777190614 | 34.44° C | 57% | 1007.1 hPa | - | - | - | - |
| 1777189712 | 34.44° C | 58% | 1007.3 hPa | - | - | - | - |
| 1777188810 | 34.44° C | 58% | 1007.5 hPa | - | - | - | - |
| 1777187907 | 34.44° C | 58% | 1007.6 hPa | - | - | - | - |
| 1777187005 | 33.89° C | 58% | 1007.9 hPa | - | - | - | - |
| 1777186103 | 33.89° C | 59% | 1008 hPa | - | - | - | - |
| 1777185201 | 33.89° C | 59% | 1008.4 hPa | - | - | - | - |
| 1777184299 | 33.89° C | 59% | 1008.6 hPa | - | - | - | - |
| 1777183397 | 33.89° C | 60% | 1009 hPa | - | - | - | - |
| 1777182494 | 33.33° C | 60% | 1009.3 hPa | - | - | - | - |
* Rain since midnight (hover to see other rain measurements)
** Current wind speed in m/s (hover to see current wind gust speed)